Latest Coastal Weather Observations for Gabo Island

IDV60701

Issued at 9:41 pm EDT Wednesday 1 April 2015 (issued every 10 minutes, with the page automatically refreshed every 10 minutes)

About coastal observations | Map of coastal stations | Coastal observations for VIC | Marine services | Other Formats
Station Details ID: 084016 Name: GABO ISLAND LIGHTHOUSE Lat: -37.57 Lon: 149.92 Height: 15.2 m
Data from the previous 72 hours. | See also: Recent months at Gabo Island
Date/Time
EDT
Temp

°C
Wind Pressure Rain
since 9am
mm
Weather Cloud Vis
km
Sea
Height
m
Swell
Dir
 
Speed
knots
Gust
knots
hPa Trend Height
m
Period
s
Dir
01/09:30pm 20.9 NNE 11 14 1015.3 - 0.0 - - - - - - -
01/09:00pm 20.7 NNE 11 14 1015.1 - 0.0 Fine Mostly cloudy 20 1 0.5 6 S
01/08:30pm 21.1 NNE 18 21 1014.7 - 0.0 - - - - - - -
01/08:00pm 21.4 N 14 18 1015.0 - 0.0 - - - - - - -
01/07:30pm 21.6 N 15 22 1014.9 - 0.0 - - - - - - -
01/07:00pm 21.4 N 10 13 1015.3 - 0.0 - - - - - - -
01/06:30pm 21.9 N 15 19 1015.1 - 0.0 - - - - - - -
01/06:00pm 21.7 NNE 20 25 1015.0 - 0.0 - - - - - - -
01/05:30pm 21.9 NNE 23 30 1014.8 - 0.0 - - - - - - -
01/05:00pm 21.7 NNE 26 32 1014.7 - 0.0 - - - - - - -
01/04:30pm 22.1 NNE 26 33 1015.0 - 0.0 - - - - - - -
01/04:00pm 22.1 NNE 28 33 1015.3 - 0.0 - - - - - - -
01/03:30pm 22.7 NNE 27 33 1015.8 - 0.0 - - - - - - -
01/03:00pm 22.9 NNE 26 32 1016.4 - 0.0 Fine Mostly cloudy 20 1 0.5 6 NE
01/02:30pm 22.7 NNE 27 34 1016.8 - 0.0 - - - - - - -
01/02:00pm 22.9 NNE 26 33 1017.6 - 0.0 - - - - - - -
01/01:30pm 23.3 NNE 22 26 1018.2 - 0.0 - - - - - - -
01/01:00pm 23.1 NNE 26 31 1018.5 - 0.0 - - - - - - -
01/12:30pm 22.9 NNE 25 32 1019.2 - 0.0 - - - - - - -
01/12:00pm 23.0 NNE 23 30 1019.9 - 0.0 - - - - - - -
01/11:30am 23.4 N 24 29 1020.3 - 0.0 - - - - - - -
01/11:00am 22.6 NNE 20 25 1020.8 - 0.0 - - - - - - -
01/10:30am 21.1 NNE 22 26 1021.1 - 0.0 - - - - - - -
01/10:00am 21.2 NNE 22 27 1021.2 - 0.0 - - - - - - -
01/09:30am 20.9 NNE 20 24 1021.3 - 0.0 - - - - - - -
01/09:00am 20.8 NNE 13 17 1021.8 - 0.0 - Mostly cloudy 40 1 0.3 12 S
01/08:30am 20.0 NNE 15 19 1021.5 - 0.0 - - - - - - -
01/08:00am 19.3 NNE 16 19 1021.5 - 0.0 - - - - - - -
01/07:57am 19.3 NNE 15 19 1021.4 - 0.0 - - - - - - -
01/07:30am 17.5 NNE 7 8 1021.8 - 0.0 - - - - - - -
01/07:00am 18.7 WNW 4 13 1021.8 - 0.0 - - - - - - -
01/06:30am 18.9 NNE 15 17 1021.1 - 0.0 - - - - - - -
01/06:00am 18.3 NE 18 20 1020.9 - 0.0 - - - - - - -
01/05:30am 18.5 NNE 19 22 1020.8 - 0.0 - - - - - - -
01/05:00am 18.8 NNE 16 19 1021.2 - 0.0 - - - - - - -
01/04:30am 17.8 N 6 11 1021.6 - 0.0 - - - - - - -
01/04:00am 17.4 N 3 5 1021.7 - 0.0 - - - - - - -
01/03:30am 17.6 NNW 3 4 1022.4 - 0.0 - - - - - - -
01/03:00am 18.2 NE 3 5 1022.8 - 0.0 Fine Clear 40 <0.5 0.3 12 S
01/02:30am 17.6 W 3 6 1023.3 - 0.0 - - - - - - -
01/02:00am 18.1 E 1 4 1023.5 - 0.0 - - - - - - -
01/01:30am 18.3 NW 3 5 1023.8 - 0.0 - - - - - - -
01/01:00am 18.7 N 5 12 1023.9 - 0.0 - - - - - - -
01/12:30am 19.4 NNE 16 21 1023.7 - 0.0 - - - - - - -
01/12:00am 19.5 NNE 13 17 1024.0 - 0.0 - - - - - - -
 
Date/Time
EDT
Temp

°C
Wind Pressure Rain
since 9am
mm
Weather Cloud Vis
km
Sea
Height
m
Swell
Dir
 
Speed
knots
Gust
knots
hPa Trend Height
m
Period
s
Dir
31/11:30pm 19.5 NNE 13 16 1024.2 - 0.0 - - - - - - -
31/11:00pm 19.3 NNE 9 12 1024.4 - 0.0 - - - - - - -
31/10:30pm 19.6 NNE 12 15 1024.4 - 0.0 - - - - - - -
31/10:00pm 19.4 NNE 12 16 1024.2 - 0.0 - - - - - - -
31/09:30pm 19.5 NNE 14 17 1024.0 - 0.0 - - - - - - -
31/09:00pm 19.4 NNE 14 16 1024.2 - 0.0 Fine Mostly clear 30 1 0.3 12 S
31/08:30pm 19.6 NNE 15 16 1024.4 - 0.0 - - - - - - -
31/08:00pm 20.0 NNE 14 16 1024.4 - 0.0 - - - - - - -
31/07:30pm 20.2 NNE 13 16 1024.4 - 0.0 - - - - - - -
31/07:00pm 20.4 NNE 15 18 1023.7 - 0.0 - - - - - - -
31/06:30pm 20.7 NNE 15 18 1023.7 - 0.0 - - - - - - -
31/06:00pm 21.0 NE 17 21 1023.5 - 0.0 - - - - - - -
31/05:30pm 20.9 NE 17 19 1023.5 - 0.0 - - - - - - -
31/05:00pm 21.6 NE 16 18 1023.7 - 0.0 - - - - - - -
31/04:30pm 21.9 NE 17 21 1023.8 - 0.0 - - - - - - -
31/04:00pm 22.3 NE 16 20 1023.8 - 0.0 - - - - - - -
31/03:30pm 22.1 NE 14 17 1024.3 - 0.0 - - - - - - -
31/03:00pm 21.9 NE 13 15 1024.7 - 0.0 Fine Mostly clear 30 1 0.3 12 S
31/02:30pm 22.3 NE 14 16 1025.1 - 0.0 - - - - - - -
31/02:00pm 22.4 NE 13 15 1025.5 - 0.0 - - - - - - -
31/01:30pm 21.7 NE 14 16 1025.9 - 0.0 - - - - - - -
31/01:00pm 21.5 NE 12 14 1026.6 - 0.0 - - - - - - -
31/12:30pm 20.8 ENE 11 12 1027.0 - 0.0 - - - - - - -
31/12:00pm 20.1 E 8 11 1027.4 - 0.0 - - - - - - -
31/11:30am 20.2 E 5 7 1027.6 - 0.0 - - - - - - -
31/11:00am 19.8 E 4 4 1027.8 - 0.0 - - - - - - -
31/10:30am 18.4 SW 3 4 1027.9 - 0.0 - - - - - - -
31/10:00am 18.5 WSW 3 5 1027.8 - 0.0 - - - - - - -
31/09:30am 18.1 SW 3 4 1027.6 - 0.0 - - - - - - -
31/09:00am 17.5 NW 3 4 1027.3 - 0.0 Smoke Mostly clear 15 <0.5 0.2 12 S
31/08:30am 16.4 NW 4 5 1027.2 - 0.0 - - - - - - -
31/08:00am 15.4 W 6 7 1027.1 - 0.0 - - - - - - -
31/07:30am 15.4 WNW 6 7 1026.8 - 0.0 - - - - - - -
31/07:00am 15.1 NW 6 7 1026.5 - 0.0 - - - - - - -
31/06:30am 14.3 WNW 7 8 1026.1 - 0.0 - - - - - - -
31/06:00am 14.9 WNW 7 7 1025.7 - 0.0 - - - - - - -
31/05:30am 15.2 WNW 7 8 1025.7 - 0.0 - - - - - - -
31/05:00am 15.2 WNW 7 7 1025.5 - 0.0 - - - - - - -
31/04:30am 15.1 WNW 7 8 1025.6 - 0.0 - - - - - - -
31/04:00am 15.2 WNW 6 7 1025.7 - 0.0 - - - - - - -
31/03:30am 15.3 WNW 6 7 1025.9 - 0.0 - - - - - - -
31/03:00am 15.4 WNW 6 7 1026.0 - 0.0 Smoke Clear 20 <0.5 0.3 12 S
31/02:30am 15.9 WNW 6 7 1026.3 - 0.0 - - - - - - -
31/02:00am 15.9 WNW 6 7 1026.4 - 0.0 - - - - - - -
31/01:30am 16.0 WNW 6 7 1026.5 - 0.0 - - - - - - -
31/01:00am 16.0 NW 7 8 1026.5 - 0.0 - - - - - - -
31/12:30am 16.2 WNW 7 8 1026.6 - 0.0 - - - - - - -
31/12:00am 17.9 SW 6 6 1026.5 - 0.0 - - - - - - -
 
Date/Time
EDT
Temp

°C
Wind Pressure Rain
since 9am
mm
Weather Cloud Vis
km
Sea
Height
m
Swell
Dir
 
Speed
knots
Gust
knots
hPa Trend Height
m
Period
s
Dir
30/11:30pm 18.2 SSW 6 7 1026.7 - 0.0 - - - - - - -
30/11:00pm 18.0 S 6 7 1026.7 - 0.0 - - - - - - -
30/10:30pm 18.2 S 6 7 1026.5 - 0.0 - - - - - - -
30/10:00pm 18.2 S 6 8 1026.5 - 0.0 - - - - - - -
30/09:30pm 18.4 S 7 8 1026.3 - 0.0 - - - - - - -
30/09:00pm 18.5 S 6 7 1026.1 - 0.0 Smoke Mostly clear 25 <0.5 0.3 12 S
30/08:30pm 18.6 SSE 5 6 1026.0 - 0.0 - - - - - - -
30/08:00pm 18.7 SSE 6 7 1025.6 - 0.0 - - - - - - -
30/07:30pm 18.9 SSE 8 9 1025.2 - 0.0 - - - - - - -
30/07:00pm 19.1 SSE 6 7 1024.8 - 0.0 - - - - - - -
30/06:30pm 19.5 SE 5 6 1024.4 - 0.0 - - - - - - -
30/06:00pm 20.0 E 5 7 1023.8 - 0.0 - - - - - - -
30/05:30pm 20.1 E 6 7 1023.7 - 0.0 - - - - - - -
30/05:00pm 20.4 ESE 6 7 1023.5 - 0.0 - - - - - - -
30/04:30pm 20.5 E 6 8 1023.2 - 0.0 - - - - - - -
30/04:00pm 20.8 E 6 7 1023.2 - 0.0 - - - - - - -
30/03:30pm 20.9 E 6 8 1023.3 - 0.0 - - - - - - -
30/03:00pm 20.7 E 7 8 1023.0 - 0.0 Fine Mostly clear 30 <0.5 0.3 11 S
30/02:30pm 20.7 E 5 7 1023.1 - 0.0 - - - - - - -
30/02:00pm 20.7 ESE 6 9 1023.2 - 0.0 - - - - - - -
30/01:30pm 20.2 SE 7 9 1023.5 - 0.0 - - - - - - -
30/01:00pm 20.1 SE 7 9 1023.8 - 0.0 - - - - - - -
30/12:30pm 20.7 SE 7 9 1024.1 - 0.0 - - - - - - -
30/12:00pm 20.2 ESE 5 7 1024.2 - 0.0 - - - - - - -
30/11:30am 19.4 ESE 4 6 1024.6 - 0.0 - - - - - - -
30/11:00am 18.6 E 3 4 1024.9 - 0.0 - - - - - - -
30/10:30am 17.0 SW 5 5 1025.1 - 0.0 - - - - - - -
30/10:00am 16.8 WSW 5 6 1025.0 - 0.0 - - - - - - -
30/09:30am 16.2 W 5 6 1024.9 - 0.0 - - - - - - -
30/09:00am 15.0 W 5 6 1024.6 - 0.0 Smoke Mostly clear 25 <0.5 0.3 11 S
30/08:30am 14.6 W 4 5 1024.5 - 0.0 - - - - - - -
30/08:00am 13.5 NW 3 4 1024.2 - 0.0 - - - - - - -
30/07:30am 12.7 W 6 7 1023.9 - 0.0 - - - - - - -
30/07:00am 12.9 NW 5 6 1023.6 - 0.0 - - - - - - -
30/06:30am 12.8 WNW 7 7 1023.3 - 0.0 - - - - - - -
30/06:00am 12.7 WNW 7 8 1023.0 - 0.0 - - - - - - -
30/05:30am 12.4 W 7 8 1023.0 - 0.0 - - - - - - -
30/05:00am 12.8 W 7 8 1022.9 - 0.0 - - - - - - -
30/04:30am 12.9 W 7 7 1023.0 - 0.0 - - - - - - -
30/04:00am 13.4 WNW 7 8 1023.1 - 0.0 - - - - - - -
30/03:30am 13.6 WNW 7 8 1023.1 - 0.0 - - - - - - -
30/03:00am 13.9 WNW 8 9 1023.3 - 0.0 Haze Clear 25 <0.5 0.5 11 S
30/02:30am 14.3 WNW 8 9 1023.6 - 0.0 - - - - - - -
30/02:00am 14.5 WNW 8 8 1023.7 - 0.0 - - - - - - -
30/01:30am 15.2 NW 7 8 1023.7 - 0.0 - - - - - - -
30/01:00am 14.9 NW 7 8 1023.8 - 0.0 - - - - - - -
30/12:30am 14.9 WNW 8 8 1023.8 - 0.0 - - - - - - -
30/12:00am 15.0 WNW 6 7 1023.9 - 0.0 - - - - - - -
 
Date/Time
EDT
Temp

°C
Wind Pressure Rain
since 9am
mm
Weather Cloud Vis
km
Sea
Height
m
Swell
Dir
 
Speed
knots
Gust
knots
hPa Trend Height
m
Period
s
Dir
29/11:30pm 15.3 WNW 7 8 1024.0 - 0.0 - - - - - - -
29/11:00pm 15.6 WNW 6 7 1024.1 - 0.0 - - - - - - -
29/10:30pm 15.7 WNW 6 7 1024.3 - 0.0 - - - - - - -
29/10:00pm 16.1 WNW 5 7 1024.2 - 0.0 - - - - - - -

Other Formats:

Comma delimited format used in spreadsheet applications
http://www.bom.gov.au/fwo/IDV60701/IDV60701.94933.axf

JavaScript Object Notation format (JSON) in row-major order
http://www.bom.gov.au/fwo/IDV60701/IDV60701.94933.json